Majesty of the Seas — C6FZ8 — position and weather

sailwx.info

Track history (hours):
 
Tides and Currents Weather Stations Pressure Air Temp Water Temp Dewpoint Dewpoint Depression Visibility Wind Speed Wind Dir Waves Ship Positions

Majesty of the Seas (Bahamas)

Last reported at 2019-Aug-22 08:26 UTC. Time now 2019-Aug-22 09:00 UTC.
Position N 26°01' W 079°29'.

Length 268 m; draft 8 m.

Type: Ship. MMSI: 311734000.

Date/timePositionNaut miles runAvg speedWind from/ knotsBaromVisibWave heightAir tempDewpointWater temp
2019-Aug-22 08:26N 26°01' W 079°29'3 6.7
2019-Aug-22 08:00N 26°04' W 079°28'4 7.2
2019-Aug-22 07:30N 26°07' W 079°25'4 7.7
2019-Aug-22 07:00N 26°09' W 079°22'65 9.3
2019-Aug-22 00:00N 25°54' W 078°12'67 1.4 070 / 81017.610.8 28.025.232.0
2019-Aug-19 23:07N 26°16' W 079°22'111.6
2019-Aug-19 23:00N 26°16' W 079°23'612.3
2019-Aug-19 22:29N 26°15' W 079°31'1014.2
2019-Aug-19 21:45N 26°11' W 079°41'416.3
2019-Aug-19 21:30N 26°10' W 079°45'815.9
2019-Aug-19 21:00N 26°08' W 079°54'815.2
2019-Aug-19 20:30N 26°07' W 080°02'5 9.2
2019-Aug-19 20:00N 26°05' W 080°07'0 0.4
2019-Aug-19 19:29N 26°05' W 080°07'0 0.0
2019-Aug-19 18:56N 26°05' W 080°07'0 0.0
2019-Aug-19 18:29N 26°05' W 080°07'0 0.0
2019-Aug-19 17:59N 26°05' W 080°07'0 0.0
2019-Aug-19 17:29N 26°05' W 080°07'0 0.0
2019-Aug-19 16:59N 26°05' W 080°07'0 0.0
2019-Aug-19 16:29N 26°05' W 080°07'0 0.0
2019-Aug-19 15:59N 26°05' W 080°07'0 0.0
2019-Aug-19 15:29N 26°05' W 080°07'0 0.0
2019-Aug-19 14:59N 26°05' W 080°07'0 0.0
2019-Aug-19 14:29N 26°05' W 080°07'0 0.0
2019-Aug-19 13:59N 26°05' W 080°07'0 0.0
2019-Aug-19 13:26N 26°05' W 080°07'0 0.0
2019-Aug-19 12:59N 26°05' W 080°07'0 0.0
2019-Aug-19 12:29N 26°05' W 080°07'0 0.0
2019-Aug-19 11:59N 26°05' W 080°07'0 0.0
2019-Aug-19 11:29N 26°05' W 080°07'0 0.0
2019-Aug-19 10:59N 26°05' W 080°07'0 1.0
2019-Aug-19 10:30N 26°06' W 080°07'5 9.8
2019-Aug-19 10:00N 26°05' W 080°01'612.2
2019-Aug-19 09:31N 26°01' W 079°57'816.2
2019-Aug-19 09:01N 25°54' W 079°51'816.2
2019-Aug-19 08:30N 25°47' W 079°47'612.1
2019-Aug-19 08:00N 25°41' W 079°46'612.4
2019-Aug-19 07:30N 25°35' W 079°46'612.2
2019-Aug-19 07:00N 25°29' W 079°46'611.9
2019-Aug-19 06:30N 25°23' W 079°46'45115.3
2019-Aug-18 01:00N 21°06' W 086°30'3416.9 150 / 161014.410.8 29.024.831.0
2019-Aug-17 23:00N 20°40' W 086°54'917.7
2019-Aug-17 22:31N 20°34' W 086°59'5 9.9
2019-Aug-17 22:00N 20°29' W 086°59'0 0.1
2019-Aug-17 21:30N 20°29' W 086°59'0 0.0
2019-Aug-17 21:00N 20°29' W 086°59'0 0.0
2019-Aug-17 20:30N 20°29' W 086°59'0 0.0
2019-Aug-17 20:00N 20°29' W 086°59'0 0.0
2019-Aug-17 19:31N 20°29' W 086°59'0 0.0
2019-Aug-17 18:59N 20°29' W 086°59'0 0.0
2019-Aug-17 18:26N 20°29' W 086°59'0 0.0
2019-Aug-17 17:29N 20°29' W 086°59'0 0.0
2019-Aug-17 16:59N 20°29' W 086°59'0 0.0
2019-Aug-17 16:29N 20°29' W 086°59'0 0.0
2019-Aug-17 15:59N 20°29' W 086°59'0 0.0
2019-Aug-17 15:29N 20°29' W 086°59'0 0.0
2019-Aug-17 14:59N 20°29' W 086°59'0 0.0
2019-Aug-17 14:29N 20°29' W 086°59'0 0.0
2019-Aug-17 13:59N 20°29' W 086°59'0 0.0
2019-Aug-17 13:29N 20°29' W 086°59'0 0.0
2019-Aug-17 12:56N 20°29' W 086°59'1 1.4
2019-Aug-17 12:30N 20°29' W 086°59'4 7.1
2019-Aug-17 12:00N 20°28' W 087°02'713.8
2019-Aug-17 11:31N 20°21' W 087°05'  
2019-Aug-15 06:00N 24°06' W 080°48'8614.3 230 / 101015.927.0 28.023.731.0
2019-Aug-15 00:00N 25°12' W 079°48'1717.6 170 / 121015.110.8 29.024.831.5
2019-Aug-14 23:02N 25°29' W 079°46'014.2
2019-Aug-14 23:00N 25°29' W 079°46'714.2
2019-Aug-14 22:30N 25°36' W 079°46'714.4
2019-Aug-14 22:00N 25°43' W 079°47'715.1
2019-Aug-14 21:30N 25°50' W 079°50'815.8
2019-Aug-14 21:00N 25°56' W 079°55'816.5
2019-Aug-14 20:30N 26°02' W 080°02'611.2
2019-Aug-14 20:00N 26°06' W 080°07'0 0.9
2019-Aug-14 19:30N 26°05' W 080°07'0 0.0
2019-Aug-14 19:00N 26°05' W 080°07'0 0.0
2019-Aug-14 18:30N 26°05' W 080°07'0 0.0
2019-Aug-14 17:57N 26°05' W 080°07'0 0.0
2019-Aug-14 17:30N 26°05' W 080°07'0 0.0
2019-Aug-14 17:00N 26°05' W 080°07'0 0.0
2019-Aug-14 16:30N 26°05' W 080°07'0 0.0
2019-Aug-14 16:00N 26°05' W 080°07'0 0.0
2019-Aug-14 15:30N 26°05' W 080°07'0 0.0
2019-Aug-14 15:00N 26°05' W 080°07'0 0.0
2019-Aug-14 14:27N 26°05' W 080°07'0 0.0
2019-Aug-14 13:57N 26°05' W 080°07'0 0.0
2019-Aug-14 13:27N 26°05' W 080°07'0 0.0
2019-Aug-14 13:00N 26°05' W 080°07'0 0.0
2019-Aug-14 12:30N 26°05' W 080°07'0 0.0
2019-Aug-14 11:57N 26°05' W 080°07'0 0.0
2019-Aug-14 11:30N 26°05' W 080°07'0 0.0
2019-Aug-14 11:00N 26°05' W 080°07'1 1.3
2019-Aug-14 10:30N 26°06' W 080°07'510.6
2019-Aug-14 10:00N 26°06' W 080°01'713.6
2019-Aug-14 09:30N 26°08' W 079°53'4 8.0
2019-Aug-14 09:00N 26°09' W 079°49'4 7.8
2019-Aug-14 08:30N 26°11' W 079°45'4 7.1
2019-Aug-14 08:00N 26°13' W 079°42'4 7.5
2019-Aug-14 07:30N 26°15' W 079°39'4 7.5
2019-Aug-14 07:00N 26°16' W 079°35'4 8.2
2019-Aug-14 06:30N 26°18' W 079°30'611.5
2019-Aug-14 06:00N 26°17' W 079°24'510.8
2019-Aug-14 05:30N 26°18' W 079°18'815.8
2019-Aug-14 05:00N 26°17' W 079°09'9418.7
2019-Aug-14 00:00N 25°48' W 077°30'5 0.3 150 / 61014.810.8 29.024.831.1
2019-Aug-13 06:00N 25°48' W 077°36'101 9.2 180 / 141013.727.0 28.023.731.0
2019-Aug-12 19:02N 26°08' W 079°26'111.2
2019-Aug-12 18:55N 26°07' W 079°27'511.3
2019-Aug-12 18:30N 26°03' W 079°30'611.6
2019-Aug-12 18:00N 25°59' W 079°34'611.9
2019-Aug-12 17:30N 25°53' W 079°37'612.3
2019-Aug-12 17:00N 25°47' W 079°38'612.2
2019-Aug-12 16:30N 25°41' W 079°38'612.0
2019-Aug-12 16:00N 25°35' W 079°38'612.2
2019-Aug-12 15:30N 25°29' W 079°38'612.0
2019-Aug-12 15:00N 25°23' W 079°38'  
Track history (hours):
 
Tides and Currents Weather Stations Pressure Air Temp Water Temp Dewpoint Dewpoint Depression Visibility Wind Speed Wind Dir Waves Ship Positions

Majesty of the Seas (Bahamas)

Last reported at 2019-Aug-22 08:26 UTC. Time now 2019-Aug-22 09:00 UTC.
Position N 26°01' W 079°29'.

Length 268 m; draft 8 m.

Type: Ship. MMSI: 311734000.

Date/timePositionNaut miles runAvg speedWind from/ knotsBaromVisibWave heightAir tempDewpointWater temp
2019-Aug-22 08:26N 26°01' W 079°29'3 6.7
2019-Aug-22 08:00N 26°04' W 079°28'4 7.2
2019-Aug-22 07:30N 26°07' W 079°25'4 7.7
2019-Aug-22 07:00N 26°09' W 079°22'65 9.3
2019-Aug-22 00:00N 25°54' W 078°12'67 1.4 070 / 81017.610.8 28.025.232.0
2019-Aug-19 23:07N 26°16' W 079°22'111.6
2019-Aug-19 23:00N 26°16' W 079°23'612.3
2019-Aug-19 22:29N 26°15' W 079°31'1014.2
2019-Aug-19 21:45N 26°11' W 079°41'416.3
2019-Aug-19 21:30N 26°10' W 079°45'815.9
2019-Aug-19 21:00N 26°08' W 079°54'815.2
2019-Aug-19 20:30N 26°07' W 080°02'5 9.2
2019-Aug-19 20:00N 26°05' W 080°07'0 0.4
2019-Aug-19 19:29N 26°05' W 080°07'0 0.0
2019-Aug-19 18:56N 26°05' W 080°07'0 0.0
2019-Aug-19 18:29N 26°05' W 080°07'0 0.0
2019-Aug-19 17:59N 26°05' W 080°07'0 0.0
2019-Aug-19 17:29N 26°05' W 080°07'0 0.0
2019-Aug-19 16:59N 26°05' W 080°07'0 0.0
2019-Aug-19 16:29N 26°05' W 080°07'0 0.0
2019-Aug-19 15:59N 26°05' W 080°07'0 0.0
2019-Aug-19 15:29N 26°05' W 080°07'0 0.0
2019-Aug-19 14:59N 26°05' W 080°07'0 0.0
2019-Aug-19 14:29N 26°05' W 080°07'0 0.0
2019-Aug-19 13:59N 26°05' W 080°07'0 0.0
2019-Aug-19 13:26N 26°05' W 080°07'0 0.0
2019-Aug-19 12:59N 26°05' W 080°07'0 0.0
2019-Aug-19 12:29N 26°05' W 080°07'0 0.0
2019-Aug-19 11:59N 26°05' W 080°07'0 0.0
2019-Aug-19 11:29N 26°05' W 080°07'0 0.0
2019-Aug-19 10:59N 26°05' W 080°07'0 1.0
2019-Aug-19 10:30N 26°06' W 080°07'5 9.8
2019-Aug-19 10:00N 26°05' W 080°01'612.2
2019-Aug-19 09:31N 26°01' W 079°57'816.2
2019-Aug-19 09:01N 25°54' W 079°51'816.2
2019-Aug-19 08:30N 25°47' W 079°47'612.1
2019-Aug-19 08:00N 25°41' W 079°46'612.4
2019-Aug-19 07:30N 25°35' W 079°46'612.2
2019-Aug-19 07:00N 25°29' W 079°46'611.9
2019-Aug-19 06:30N 25°23' W 079°46'45115.3
2019-Aug-18 01:00N 21°06' W 086°30'3416.9 150 / 161014.410.8 29.024.831.0
2019-Aug-17 23:00N 20°40' W 086°54'917.7
2019-Aug-17 22:31N 20°34' W 086°59'5 9.9
2019-Aug-17 22:00N 20°29' W 086°59'0 0.1
2019-Aug-17 21:30N 20°29' W 086°59'0 0.0
2019-Aug-17 21:00N 20°29' W 086°59'0 0.0
2019-Aug-17 20:30N 20°29' W 086°59'0 0.0
2019-Aug-17 20:00N 20°29' W 086°59'0 0.0
2019-Aug-17 19:31N 20°29' W 086°59'0 0.0
2019-Aug-17 18:59N 20°29' W 086°59'0 0.0
2019-Aug-17 18:26N 20°29' W 086°59'0 0.0
2019-Aug-17 17:29N 20°29' W 086°59'0 0.0
2019-Aug-17 16:59N 20°29' W 086°59'0 0.0
2019-Aug-17 16:29N 20°29' W 086°59'0 0.0
2019-Aug-17 15:59N 20°29' W 086°59'0 0.0
2019-Aug-17 15:29N 20°29' W 086°59'0 0.0
2019-Aug-17 14:59N 20°29' W 086°59'0 0.0
2019-Aug-17 14:29N 20°29' W 086°59'0 0.0
2019-Aug-17 13:59N 20°29' W 086°59'0 0.0
2019-Aug-17 13:29N 20°29' W 086°59'0 0.0
2019-Aug-17 12:56N 20°29' W 086°59'1 1.4
2019-Aug-17 12:30N 20°29' W 086°59'4 7.1
2019-Aug-17 12:00N 20°28' W 087°02'713.8
2019-Aug-17 11:31N 20°21' W 087°05'  
2019-Aug-15 06:00N 24°06' W 080°48'8614.3 230 / 101015.927.0 28.023.731.0
2019-Aug-15 00:00N 25°12' W 079°48'1717.6 170 / 121015.110.8 29.024.831.5
2019-Aug-14 23:02N 25°29' W 079°46'014.2
2019-Aug-14 23:00N 25°29' W 079°46'714.2
2019-Aug-14 22:30N 25°36' W 079°46'714.4
2019-Aug-14 22:00N 25°43' W 079°47'715.1
2019-Aug-14 21:30N 25°50' W 079°50'815.8
2019-Aug-14 21:00N 25°56' W 079°55'816.5
2019-Aug-14 20:30N 26°02' W 080°02'611.2
2019-Aug-14 20:00N 26°06' W 080°07'0 0.9
2019-Aug-14 19:30N 26°05' W 080°07'0 0.0
2019-Aug-14 19:00N 26°05' W 080°07'0 0.0
2019-Aug-14 18:30N 26°05' W 080°07'0 0.0
2019-Aug-14 17:57N 26°05' W 080°07'0 0.0
2019-Aug-14 17:30N 26°05' W 080°07'0 0.0
2019-Aug-14 17:00N 26°05' W 080°07'0 0.0
2019-Aug-14 16:30N 26°05' W 080°07'0 0.0
2019-Aug-14 16:00N 26°05' W 080°07'0 0.0
2019-Aug-14 15:30N 26°05' W 080°07'0 0.0
2019-Aug-14 15:00N 26°05' W 080°07'0 0.0
2019-Aug-14 14:27N 26°05' W 080°07'0 0.0
2019-Aug-14 13:57N 26°05' W 080°07'0 0.0
2019-Aug-14 13:27N 26°05' W 080°07'0 0.0
2019-Aug-14 13:00N 26°05' W 080°07'0 0.0
2019-Aug-14 12:30N 26°05' W 080°07'0 0.0
2019-Aug-14 11:57N 26°05' W 080°07'0 0.0
2019-Aug-14 11:30N 26°05' W 080°07'0 0.0
2019-Aug-14 11:00N 26°05' W 080°07'1 1.3
2019-Aug-14 10:30N 26°06' W 080°07'510.6
2019-Aug-14 10:00N 26°06' W 080°01'713.6
2019-Aug-14 09:30N 26°08' W 079°53'4 8.0
2019-Aug-14 09:00N 26°09' W 079°49'4 7.8
2019-Aug-14 08:30N 26°11' W 079°45'4 7.1
2019-Aug-14 08:00N 26°13' W 079°42'4 7.5
2019-Aug-14 07:30N 26°15' W 079°39'4 7.5
2019-Aug-14 07:00N 26°16' W 079°35'4 8.2
2019-Aug-14 06:30N 26°18' W 079°30'611.5
2019-Aug-14 06:00N 26°17' W 079°24'510.8
2019-Aug-14 05:30N 26°18' W 079°18'815.8
2019-Aug-14 05:00N 26°17' W 079°09'9418.7
2019-Aug-14 00:00N 25°48' W 077°30'5 0.3 150 / 61014.810.8 29.024.831.1
2019-Aug-13 06:00N 25°48' W 077°36'101 9.2 180 / 141013.727.0 28.023.731.0
2019-Aug-12 19:02N 26°08' W 079°26'111.2
2019-Aug-12 18:55N 26°07' W 079°27'511.3
2019-Aug-12 18:30N 26°03' W 079°30'611.6
2019-Aug-12 18:00N 25°59' W 079°34'611.9
2019-Aug-12 17:30N 25°53' W 079°37'612.3
2019-Aug-12 17:00N 25°47' W 079°38'612.2
2019-Aug-12 16:30N 25°41' W 079°38'612.0
2019-Aug-12 16:00N 25°35' W 079°38'612.2
2019-Aug-12 15:30N 25°29' W 079°38'612.0
2019-Aug-12 15:00N 25°23' W 079°38'  

Dump ship's entire track history